Time;durP1;ratioP1;P1;durP2;ratioP2;P2;SDS_P1;SDS_P2;PMS_P1;PMS_P2;Temp;Humidity;BMP_temperature;BMP_pressure;BME280_temperature;BME280_humidity;BME280_pressure;Samples;Min_cycle;Max_cycle;Signal;HPM_P1;HPM_P2
2022/11/02 00:00:29;;;;;;;24.58;5.28;;;;;;;11.81;100.00;163651.34;5094040;28;20100;-65
2022/11/02 00:02:55;;;;;;;12.13;5.78;;;;;;;11.75;100.00;163637.84;5091763;28;20575;-65
2022/11/02 00:05:23;;;;;;;11.30;4.15;;;;;;;11.74;100.00;163635.16;5093856;28;20031;-65
2022/11/02 00:07:50;;;;;;;14.93;4.40;;;;;;;11.76;100.00;163639.25;5091797;28;20539;-65
2022/11/02 00:10:15;;;;;;;10.75;2.92;;;;;;;11.82;100.00;163655.44;5089287;28;20104;-65
2022/11/02 00:12:41;;;;;;;11.35;3.75;;;;;;;11.88;100.00;163671.63;5071938;28;20041;-63
2022/11/02 00:15:07;;;;;;;9.48;3.92;;;;;;;11.95;100.00;163689.16;5073247;28;20086;-63
2022/11/02 00:17:34;;;;;;;10.88;4.30;;;;;;;12.03;100.00;163709.50;5071760;28;20424;-64
2022/11/02 00:19:59;;;;;;;15.93;3.97;;;;;;;12.11;100.00;163731.13;5091386;28;20035;-64
2022/11/02 00:22:25;;;;;;;14.65;5.05;;;;;;;12.04;100.00;163713.56;5090222;28;20043;-63
2022/11/02 00:24:51;;;;;;;15.60;4.72;;;;;;;12.19;100.00;163751.38;5089718;28;20020;-64
2022/11/02 00:27:16;;;;;;;17.70;5.03;;;;;;;12.18;100.00;163750.03;5071723;28;20198;-64
2022/11/02 00:29:42;;;;;;;8.75;3.20;;;;;;;12.15;100.00;163740.59;5087672;28;20016;-64
2022/11/02 00:32:07;;;;;;;16.70;5.38;;;;;;;12.17;100.00;163747.34;5081603;28;20056;-64
2022/11/02 00:34:32;;;;;;;12.98;4.55;;;;;;;12.13;100.00;163736.56;5073316;28;20025;-64
2022/11/02 00:36:58;;;;;;;13.32;3.55;;;;;;;12.11;100.00;163729.75;5080870;28;20043;-64
2022/11/02 00:39:23;;;;;;;16.30;4.88;;;;;;;12.06;100.00;163718.97;5079298;28;20154;-64
2022/11/02 00:41:48;;;;;;;16.33;5.78;;;;;;;11.99;100.00;163700.06;5071589;28;20040;-63
2022/11/02 00:44:14;;;;;;;13.15;4.38;;;;;;;11.91;100.00;163678.38;5072978;28;20046;-64
2022/11/02 00:46:39;;;;;;;18.55;5.88;;;;;;;11.90;100.00;163675.69;5075011;28;20044;-63
2022/11/02 00:49:04;;;;;;;19.00;4.80;;;;;;;11.91;100.00;163678.38;5082776;28;20039;-63
2022/11/02 00:51:30;;;;;;;27.65;6.20;;;;;;;11.86;100.00;163666.22;5091629;28;20036;-64
2022/11/02 00:53:55;;;;;;;16.42;4.05;;;;;;;11.86;100.00;163664.91;5079588;28;20036;-64
2022/11/02 00:56:20;;;;;;;22.40;4.40;;;;;;;11.85;100.00;163662.19;5073067;28;20028;-63
2022/11/02 00:58:46;;;;;;;16.35;4.32;;;;;;;11.93;100.00;163683.81;5083976;28;20487;-63
2022/11/02 01:01:11;;;;;;;10.85;4.95;;;;;;;12.00;100.00;163702.75;5090846;28;20028;-64
2022/11/02 01:03:36;;;;;;;8.40;3.53;;;;;;;12.06;100.00;163717.63;5092953;28;20031;-64
2022/11/02 01:06:10;;;;;;;9.15;3.38;;;;;;;12.11;100.00;163729.75;5078510;28;20039;-64
2022/11/02 01:08:35;;;;;;;14.70;4.85;;;;;;;12.10;100.00;163727.09;5078732;28;20040;-63
2022/11/02 01:11:15;;;;;;;9.95;3.78;;;;;;;12.15;100.00;163741.91;5092430;28;20061;-63
2022/11/02 01:13:41;;;;;;;17.25;3.88;;;;;;;12.17;100.00;163746.00;5073149;28;20498;-63
2022/11/02 01:16:07;;;;;;;8.63;2.83;;;;;;;12.04;100.00;163713.56;5072194;28;20099;-63
2022/11/02 01:18:32;;;;;;;11.20;5.10;;;;;;;12.13;100.00;163736.56;5077145;28;20051;-62
2022/11/02 01:20:58;;;;;;;12.93;3.28;;;;;;;12.16;100.00;163743.31;5088313;28;20492;-63
2022/11/02 01:23:24;;;;;;;14.95;3.95;;;;;;;12.15;100.00;163740.59;5089939;28;20040;-62
2022/11/02 01:25:50;;;;;;;9.88;3.42;;;;;;;12.19;100.00;163751.38;5092819;28;20024;-63
2022/11/02 01:28:15;;;;;;;8.02;4.13;;;;;;;12.16;100.00;163744.63;5082804;28;20492;-62
2022/11/02 01:30:40;;;;;;;14.15;4.00;;;;;;;12.18;100.00;163748.66;5071546;28;20028;-62
2022/11/02 01:33:06;;;;;;;11.57;3.78;;;;;;;12.21;100.00;163756.78;5080063;28;20525;-62
2022/11/02 01:35:31;;;;;;;13.65;3.45;;;;;;;12.14;100.00;163737.88;5087838;28;20029;-63
2022/11/02 01:37:56;;;;;;;18.15;5.60;;;;;;;12.17;100.00;163746.00;5070671;28;20067;-62
2022/11/02 01:40:22;;;;;;;20.13;3.28;;;;;;;12.18;100.00;163750.03;5091912;28;20016;-63
2022/11/02 01:42:47;;;;;;;8.10;3.90;;;;;;;12.17;100.00;163747.34;5084736;28;20397;-62
2022/11/02 01:45:13;;;;;;;13.20;3.85;;;;;;;12.15;100.00;163740.59;5071179;28;20812;-62
2022/11/02 01:47:44;;;;;;;15.02;4.50;;;;;;;12.26;100.00;163770.28;5070371;28;20036;-62
2022/11/02 01:50:15;;;;;;;11.05;3.65;;;;;;;12.29;100.00;163778.41;5090573;28;20081;-62
2022/11/02 01:52:40;;;;;;;12.43;3.40;;;;;;;12.22;100.00;163759.50;5085642;28;20048;-62
2022/11/02 01:55:15;;;;;;;9.23;2.65;;;;;;;12.26;100.00;163770.28;5091792;28;20028;-63
2022/11/02 01:57:44;;;;;;;18.42;4.75;;;;;;;12.27;100.00;163773.00;5078295;28;20045;-62
2022/11/02 02:00:12;;;;;;;16.27;4.82;;;;;;;12.25;100.00;163767.59;5089733;28;20032;-62
2022/11/02 02:02:44;;;;;;;19.88;5.15;;;;;;;12.22;100.00;163759.50;5090044;28;20089;-62
2022/11/02 02:05:13;;;;;;;17.63;3.97;;;;;;;12.16;100.00;163743.31;5087116;28;20034;-62
2022/11/02 02:07:39;;;;;;;15.05;3.80;;;;;;;12.05;100.00;163714.94;5082541;28;20052;-62
2022/11/02 02:10:05;;;;;;;14.15;3.95;;;;;;;12.00;100.00;163701.38;5089060;28;20020;-62
2022/11/02 02:12:31;;;;;;;14.32;5.18;;;;;;;12.01;100.00;163705.47;5090185;28;20040;-63
2022/11/02 02:14:58;;;;;;;14.45;4.43;;;;;;;11.98;100.00;163697.34;5091305;28;20049;-62
2022/11/02 02:17:38;;;;;;;9.77;3.47;;;;;;;11.98;100.00;163697.34;5085322;28;20064;-63
2022/11/02 02:20:16;;;;;;;9.85;3.55;;;;;;;12.06;100.00;163717.63;5073350;28;20111;-64
2022/11/02 02:23:03;;;;;;;12.85;4.70;;;;;;;12.27;100.00;163773.00;5069371;28;20044;-64
2022/11/02 02:25:57;;;;;;;16.02;4.38;;;;;;;12.38;100.00;163802.75;5079352;28;20028;-64
2022/11/02 02:28:39;;;;;;;10.30;3.60;;;;;;;12.50;100.00;163833.84;5073754;28;20528;-64
2022/11/02 02:31:15;;;;;;;13.40;2.72;;;;;;;12.59;100.00;163855.41;5090522;28;20058;-64
2022/11/02 02:33:49;;;;;;;14.05;3.17;;;;;;;12.60;100.00;163858.13;5085418;28;20051;-65
2022/11/02 02:36:23;;;;;;;12.02;3.50;;;;;;;12.57;100.00;163851.38;5074885;28;20051;-65
2022/11/02 02:39:02;;;;;;;10.52;4.80;;;;;;;12.56;100.00;163848.66;5070619;28;20024;-65
2022/11/02 02:41:39;;;;;;;;;;;;;;;12.50;100.00;163832.47;5070293;28;20146;-65
2022/11/02 02:44:09;;;;;;;10.73;3.42;;;;;;;12.47;100.00;163824.38;5075977;28;19923;-64
2022/11/02 02:47:00;;;;;;;9.68;3.33;;;;;;;12.52;100.00;163837.88;5075776;28;20048;-65
2022/11/02 02:49:36;;;;;;;10.18;3.00;;;;;;;12.56;100.00;163848.66;5063635;28;20115;-65
2022/11/02 02:52:02;;;;;;;5.50;2.50;;;;;;;12.52;100.00;163837.88;5072653;28;20140;-66
2022/11/02 02:54:39;;;;;;;19.02;4.78;;;;;;;12.48;100.00;163828.41;5089346;28;20019;-66
2022/11/02 02:57:11;;;;;;;14.93;3.35;;;;;;;12.33;100.00;163789.22;5067701;28;20534;-66
2022/11/02 02:59:42;;;;;;;12.57;2.78;;;;;;;12.16;100.00;163743.31;5070373;28;20024;-66
2022/11/02 03:02:15;;;;;;;3.15;1.45;;;;;;;11.96;100.00;163690.56;5069124;28;20059;-66
2022/11/02 03:04:41;;;;;;;4.22;1.70;;;;;;;11.73;100.00;163631.09;5074737;28;20035;-66
2022/11/02 03:07:10;;;;;;;4.10;1.50;;;;;;;11.58;100.00;163593.28;5088843;28;20040;-66
2022/11/02 03:09:42;;;;;;;4.97;1.77;;;;;;;11.47;100.00;163562.22;5088890;28;20434;-66
2022/11/02 03:12:44;;;;;;;4.63;1.92;;;;;;;11.39;100.00;163542.00;5068824;28;20049;-67
2022/11/02 03:15:23;;;;;;;4.63;1.80;;;;;;;11.27;100.00;163510.94;5074405;28;20024;-67
2022/11/02 03:18:02;;;;;;;8.20;3.05;;;;;;;11.09;100.00;163463.66;5087206;28;20036;-66
2022/11/02 03:20:43;;;;;;;3.42;2.15;;;;;;;10.99;100.00;163437.97;5080167;28;20028;-66
2022/11/02 03:23:27;;;;;;;3.75;1.75;;;;;;;10.83;100.00;163394.81;5092419;28;20611;-66
2022/11/02 03:26:06;;;;;;;5.57;2.50;;;;;;;10.73;100.00;163370.50;5094846;28;20050;-66
2022/11/02 03:28:50;;;;;;;;;;;;;;;10.67;100.00;163352.94;5093697;28;20134;-66
2022/11/02 03:31:21;;;;;;;2.78;1.98;;;;;;;10.50;100.00;163308.41;5090856;28;20053;-66
2022/11/02 03:34:15;;;;;;;8.13;2.38;;;;;;;10.47;100.00;163301.66;5088204;28;20055;-66
2022/11/02 03:36:50;;;;;;;13.50;3.53;;;;;;;10.37;100.00;163276.03;5085744;28;20492;-66
2022/11/02 03:39:23;;;;;;;6.68;2.05;;;;;;;10.35;100.00;163270.56;5094292;28;20024;-65
2022/11/02 03:41:52;;;;;;;4.70;2.80;;;;;;;10.23;100.00;163238.19;5092748;28;20082;-65
2022/11/02 03:44:22;;;;;;;7.63;3.78;;;;;;;10.14;100.00;163216.59;5075862;28;20024;-65
2022/11/02 03:46:50;;;;;;;9.68;3.80;;;;;;;10.18;100.00;163224.66;5073823;28;20447;-65
2022/11/02 03:49:17;;;;;;;5.80;2.00;;;;;;;10.22;100.00;163235.47;5076828;28;20056;-64
2022/11/02 03:51:44;;;;;;;8.50;2.63;;;;;;;10.34;100.00;163267.84;5080855;28;20415;-65
2022/11/02 03:54:36;;;;;;;15.93;3.65;;;;;;;10.48;100.00;163305.69;5077640;28;20498;-65
2022/11/02 03:57:06;;;;;;;7.47;3.47;;;;;;;10.62;100.00;163342.16;5072613;28;20062;-65
2022/11/02 03:59:31;;;;;;;12.48;3.08;;;;;;;10.76;100.00;163378.56;5084013;28;20294;-65
2022/11/02 04:01:59;;;;;;;5.07;2.35;;;;;;;10.81;100.00;163390.72;5089175;28;20072;-65
2022/11/02 04:04:24;;;;;;;10.38;4.50;;;;;;;10.94;100.00;163424.50;5074494;28;20028;-65
2022/11/02 04:06:51;;;;;;;4.95;1.98;;;;;;;10.98;100.00;163435.31;5072135;28;20037;-65
2022/11/02 04:09:16;;;;;;;9.40;2.75;;;;;;;11.02;100.00;163446.09;5073665;28;20424;-65
2022/11/02 04:14:37;;;;;;;8.15;3.17;;;;;;;11.02;100.00;163444.78;5090883;28;20442;-65
2022/11/02 04:19:49;;;;;;;13.88;4.80;;;;;;;11.14;100.00;163475.78;5073828;28;20047;-65
2022/11/02 04:27:47;;;;;;;7.40;3.75;;;;;;;11.20;100.00;163492.03;5072367;28;20046;-63
2022/11/02 04:30:17;;;;;;;19.27;6.00;;;;;;;11.23;100.00;163500.09;5073181;28;20099;-63
2022/11/02 04:35:29;;;;;;;7.25;2.90;;;;;;;11.19;100.00;163489.31;5090768;28;20031;-63
2022/11/02 04:40:38;;;;;;;6.93;2.47;;;;;;;11.28;100.00;163513.63;5093859;28;20035;-62
2022/11/02 04:43:04;;;;;;;11.98;3.80;;;;;;;11.29;100.00;163516.28;5086270;28;20033;-61
2022/11/02 04:45:29;;;;;;;7.13;3.42;;;;;;;11.27;100.00;163510.94;5072951;28;20479;-62
2022/11/02 04:48:03;;;;;;;11.80;2.78;;;;;;;11.20;100.00;163492.03;5075713;28;20401;-62
2022/11/02 04:50:29;;;;;;;6.70;2.40;;;;;;;11.18;100.00;163486.59;5072896;28;20115;-62
2022/11/02 04:52:56;;;;;;;16.77;4.18;;;;;;;11.20;100.00;163492.03;5074292;28;20178;-62
2022/11/02 04:55:21;;;;;;;11.57;3.17;;;;;;;11.20;100.00;163492.03;5090651;28;20040;-63
2022/11/02 04:57:47;;;;;;;5.53;3.65;;;;;;;11.21;100.00;163494.69;5071122;28;20048;-62
2022/11/02 05:00:13;;;;;;;13.05;3.88;;;;;;;11.14;100.00;163477.16;5083152;28;20031;-63
2022/11/02 05:02:38;;;;;;;12.85;3.83;;;;;;;11.04;100.00;163451.50;5087011;28;20561;-63
2022/11/02 05:05:05;;;;;;;10.68;3.33;;;;;;;10.99;100.00;163437.97;5092405;28;20366;-62
2022/11/02 05:07:30;;;;;;;7.72;3.70;;;;;;;10.95;100.00;163427.19;5075009;28;20055;-64
2022/11/02 05:09:55;;;;;;;8.73;3.10;;;;;;;10.84;100.00;163397.47;5073266;28;20021;-63
2022/11/02 05:12:21;;;;;;;17.92;5.47;;;;;;;10.87;100.00;163406.91;5077656;28;20105;-66
2022/11/02 05:14:46;;;;;;;10.00;4.00;;;;;;;10.89;100.00;163412.34;5078681;28;20031;-65
2022/11/02 05:17:12;;;;;;;11.70;4.00;;;;;;;10.96;100.00;163429.91;5087792;28;20051;-66
2022/11/02 05:19:37;;;;;;;11.68;3.97;;;;;;;11.08;100.00;163462.28;5090232;28;20035;-66
2022/11/02 05:22:02;;;;;;;22.50;4.25;;;;;;;11.15;100.00;163478.47;5078501;28;20041;-66
2022/11/02 05:24:28;;;;;;;9.07;4.20;;;;;;;11.21;100.00;163494.69;5075488;28;20025;-66
2022/11/02 05:26:53;;;;;;;12.93;2.97;;;;;;;11.21;100.00;163494.69;5078907;28;20546;-66
2022/11/02 05:29:19;;;;;;;10.32;3.40;;;;;;;11.35;100.00;163532.53;5081228;28;20074;-66
2022/11/02 05:31:44;;;;;;;9.88;3.20;;;;;;;11.37;100.00;163536.56;5089137;28;20508;-66
2022/11/02 05:34:09;;;;;;;8.32;4.13;;;;;;;11.41;100.00;163548.75;5089357;28;20016;-66
2022/11/02 05:36:35;;;;;;;17.27;4.75;;;;;;;11.45;100.00;163558.19;5070320;28;20094;-65
2022/11/02 05:39:00;;;;;;;6.93;3.53;;;;;;;11.39;100.00;163543.31;5072071;28;20024;-65
2022/11/02 05:41:25;;;;;;;16.70;5.40;;;;;;;11.36;100.00;163535.19;5073734;28;20028;-65
2022/11/02 05:43:51;;;;;;;15.23;4.88;;;;;;;11.31;100.00;163520.38;5072084;28;20043;-65
2022/11/02 05:46:17;;;;;;;16.88;4.97;;;;;;;11.27;100.00;163512.25;5070360;28;20103;-65
2022/11/02 05:48:43;;;;;;;10.75;2.75;;;;;;;11.24;100.00;163504.13;5072020;28;20415;-65
2022/11/02 05:51:09;;;;;;;4.22;2.60;;;;;;;11.21;100.00;163494.69;5071043;28;20024;-65
2022/11/02 05:53:37;;;;;;;7.78;3.70;;;;;;;11.15;100.00;163479.88;5070382;28;20041;-64
2022/11/02 05:56:05;;;;;;;11.65;2.28;;;;;;;11.08;100.00;163462.28;5071758;28;20016;-64
2022/11/02 05:58:31;;;;;;;19.00;5.78;;;;;;;11.02;100.00;163446.09;5069769;28;20454;-63
2022/11/02 06:01:02;;;;;;;21.73;4.22;;;;;;;11.08;100.00;163462.28;5071757;28;20049;-63
2022/11/02 06:03:28;;;;;;;13.90;3.42;;;;;;;11.09;100.00;163465.00;5070055;28;20496;-63
2022/11/02 06:06:02;;;;;;;13.23;4.75;;;;;;;11.13;100.00;163473.13;5071446;28;20031;-66
2022/11/02 06:08:31;;;;;;;13.15;3.78;;;;;;;11.22;100.00;163498.75;5070174;28;20083;-65
2022/11/02 06:10:56;;;;;;;14.32;3.00;;;;;;;11.29;100.00;163516.28;5071627;28;20020;-64
2022/11/02 06:13:22;;;;;;;15.00;3.97;;;;;;;11.38;100.00;163540.63;5069380;28;20044;-61
2022/11/02 06:15:47;;;;;;;13.05;3.90;;;;;;;11.45;100.00;163558.19;5071613;28;20023;-64
2022/11/02 06:18:12;;;;;;;9.70;3.88;;;;;;;11.52;100.00;163575.72;5069687;28;20044;-60
2022/11/02 06:20:38;;;;;;;23.10;5.47;;;;;;;11.53;100.00;163579.81;5070720;28;20031;-59
2022/11/02 06:23:03;;;;;;;17.13;5.35;;;;;;;11.55;100.00;163583.84;5069416;28;20106;-60
2022/11/02 06:25:29;;;;;;;20.63;5.82;;;;;;;11.52;100.00;163577.09;5071219;28;20024;-60
2022/11/02 06:27:55;;;;;;;12.57;2.95;;;;;;;11.54;100.00;163581.13;5069551;28;20483;-60
2022/11/02 06:30:22;;;;;;;16.08;4.35;;;;;;;11.54;100.00;163581.13;5071174;28;20043;-60
2022/11/02 06:32:49;;;;;;;14.13;4.68;;;;;;;11.51;100.00;163573.00;5069461;28;20048;-60
2022/11/02 06:35:16;;;;;;;15.00;4.05;;;;;;;11.54;100.00;163581.13;5070522;28;20107;-60
2022/11/02 06:37:42;;;;;;;14.38;2.45;;;;;;;11.51;100.00;163573.00;5069691;28;20048;-60
2022/11/02 06:40:08;;;;;;;9.18;4.95;;;;;;;11.43;100.00;163554.09;5070964;28;20027;-60
2022/11/02 06:42:33;;;;;;;9.05;5.38;;;;;;;11.48;100.00;163564.94;5069293;28;20036;-60
2022/11/02 06:45:01;;;;;;;19.52;4.38;;;;;;;11.48;100.00;163566.25;5070813;28;20027;-60
2022/11/02 06:47:34;;;;;;;10.48;4.28;;;;;;;11.54;100.00;163582.47;5069568;28;20033;-60
2022/11/02 06:50:00;;;;;;;13.70;4.13;;;;;;;11.54;100.00;163582.47;5070893;28;20029;-60
2022/11/02 06:52:26;;;;;;;13.90;5.03;;;;;;;11.49;100.00;163567.63;5068234;28;20484;-60
2022/11/02 06:54:52;;;;;;;13.20;3.88;;;;;;;11.54;100.00;163581.13;5070942;28;20028;-60
2022/11/02 06:57:17;;;;;;;11.13;4.38;;;;;;;11.54;100.00;163581.13;5068702;28;20040;-60
2022/11/02 06:59:42;;;;;;;11.68;4.00;;;;;;;11.53;100.00;163578.41;5070781;28;20532;-60
2022/11/02 07:02:08;;;;;;;15.95;4.15;;;;;;;11.54;100.00;163582.47;5069066;28;20040;-60
2022/11/02 07:04:34;;;;;;;15.02;5.28;;;;;;;11.63;100.00;163605.47;5069994;28;20025;-60
2022/11/02 07:06:59;;;;;;;10.75;3.55;;;;;;;11.60;100.00;163597.31;5069400;28;20416;-60
2022/11/02 07:09:24;;;;;;;14.23;3.63;;;;;;;11.64;100.00;163606.78;5070323;28;20497;-60
2022/11/02 07:11:50;;;;;;;11.63;4.80;;;;;;;11.64;100.00;163608.16;5068881;28;20400;-60
2022/11/02 07:14:15;;;;;;;7.13;3.92;;;;;;;11.60;100.00;163597.31;5070332;28;20043;-60
2022/11/02 07:16:40;;;;;;;12.38;3.55;;;;;;;11.43;100.00;163552.78;5069307;28;20037;-60
2022/11/02 07:19:06;;;;;;;11.88;3.95;;;;;;;11.64;100.00;163608.16;5070003;28;20031;-60
2022/11/02 07:21:31;;;;;;;17.67;4.57;;;;;;;11.72;100.00;163629.78;5070108;28;20055;-60
2022/11/02 07:23:56;;;;;;;12.13;4.03;;;;;;;11.77;100.00;163640.56;5088402;28;20024;-60
2022/11/02 07:26:22;;;;;;;14.02;3.97;;;;;;;11.76;100.00;163639.25;5088579;28;20024;-59
2022/11/02 07:28:47;;;;;;;10.52;4.60;;;;;;;11.78;100.00;163643.28;5090816;28;20077;-60
2022/11/02 07:31:13;;;;;;;8.00;3.50;;;;;;;11.66;100.00;163613.53;5088841;28;20023;-59
2022/11/02 07:33:38;;;;;;;13.05;3.75;;;;;;;11.63;100.00;163604.06;5090108;28;20027;-60
2022/11/02 07:36:04;;;;;;;13.98;3.72;;;;;;;11.51;100.00;163574.38;5090481;28;20345;-60
2022/11/02 07:38:29;;;;;;;12.85;3.70;;;;;;;11.50;100.00;163571.69;5089002;28;20051;-60
2022/11/02 07:40:55;;;;;;;12.43;3.83;;;;;;;11.47;100.00;163563.56;5076885;28;20044;-60
2022/11/02 07:43:20;;;;;;;11.18;3.05;;;;;;;11.43;100.00;163554.09;5068528;28;20055;-60
2022/11/02 07:45:45;;;;;;;12.75;4.22;;;;;;;11.41;100.00;163548.75;5070431;28;20074;-60
2022/11/02 07:48:11;;;;;;;10.07;3.97;;;;;;;11.37;100.00;163536.56;5067980;28;20089;-61
2022/11/02 07:50:36;;;;;;;10.35;3.47;;;;;;;11.26;100.00;163509.56;5070422;28;20503;-60
2022/11/02 07:53:02;;;;;;;14.68;4.47;;;;;;;11.30;100.00;163519.00;5068458;28;20101;-60
2022/11/02 07:55:29;;;;;;;18.85;4.57;;;;;;;11.30;100.00;163519.00;5068617;28;20024;-60
2022/11/02 07:57:55;;;;;;;7.57;2.80;;;;;;;11.28;100.00;163513.63;5068695;28;20032;-60
2022/11/02 08:00:21;;;;;;;18.40;5.13;;;;;;;11.27;100.00;163510.94;5069859;28;20481;-59
2022/11/02 08:02:46;;;;;;;14.07;3.25;;;;;;;11.32;100.00;163524.41;5068190;28;20040;-60
2022/11/02 08:05:12;;;;;;;13.02;4.13;;;;;;;11.38;100.00;163540.63;5085465;28;20027;-61
2022/11/02 08:07:37;;;;;;;6.60;2.67;;;;;;;11.42;100.00;163551.44;5092371;28;20092;-61
2022/11/02 08:10:03;;;;;;;14.32;3.17;;;;;;;11.48;100.00;163564.94;5093374;28;20561;-60
2022/11/02 08:12:29;;;;;;;18.45;5.55;;;;;;;11.55;100.00;163585.16;5091732;28;20454;-61
2022/11/02 08:14:55;;;;;;;7.00;2.83;;;;;;;11.62;100.00;163602.75;5093499;28;20027;-60
2022/11/02 08:17:20;;;;;;;17.20;3.40;;;;;;;11.74;100.00;163635.16;5091800;28;20044;-60
2022/11/02 08:19:46;;;;;;;15.65;3.35;;;;;;;11.85;100.00;163662.19;5094126;28;20020;-60
2022/11/02 08:22:11;;;;;;;7.93;3.30;;;;;;;11.99;100.00;163698.72;5092275;28;20360;-60
2022/11/02 08:24:36;;;;;;;11.65;4.97;;;;;;;12.24;100.00;163764.91;5093511;28;20020;-60
2022/11/02 08:27:02;;;;;;;7.53;3.25;;;;;;;12.44;100.00;163817.59;5092112;28;20500;-60
2022/11/02 08:29:27;;;;;;;20.23;5.25;;;;;;;12.46;100.00;163821.66;5093607;28;20093;-61
2022/11/02 08:31:53;;;;;;;16.80;5.05;;;;;;;12.54;100.00;163843.28;5091647;28;20580;-60
2022/11/02 08:34:18;;;;;;;20.35;3.72;;;;;;;12.62;100.00;163864.88;5093170;28;20024;-60
2022/11/02 08:36:43;;;;;;;20.55;3.75;;;;;;;12.67;100.00;163878.44;5092483;28;20036;-60
2022/11/02 08:39:09;;;;;;;14.00;4.80;;;;;;;12.40;100.00;163805.47;5093064;28;20498;-61
2022/11/02 08:41:34;;;;;;;7.88;2.65;;;;;;;12.49;100.00;163831.13;5091826;28;20044;-60
2022/11/02 08:43:59;;;;;;;11.80;4.22;;;;;;;12.52;100.00;163839.22;5093306;28;20028;-60
2022/11/02 08:46:25;;;;;;;11.77;3.05;;;;;;;12.41;100.00;163809.50;5091520;28;20503;-60
2022/11/02 08:48:50;;;;;;;13.50;4.13;;;;;;;12.44;100.00;163816.25;5093023;28;20380;-60
2022/11/02 08:51:15;;;;;;;7.60;2.67;;;;;;;12.49;100.00;163829.75;5091469;28;20027;-59
2022/11/02 08:53:41;;;;;;;11.15;2.50;;;;;;;12.67;100.00;163877.03;5093041;28;20081;-60
2022/11/02 08:56:06;;;;;;;14.55;4.55;;;;;;;13.01;100.00;163967.63;5092659;28;20020;-60
2022/11/02 08:58:31;;;;;;;10.80;4.22;;;;;;;12.80;100.00;163912.22;5091672;28;20048;-60
2022/11/02 09:00:57;;;;;;;8.07;3.42;;;;;;;12.92;100.00;163943.28;5092952;28;20028;-60
2022/11/02 09:03:23;;;;;;;9.00;2.60;;;;;;;12.95;100.00;163950.06;5090742;28;20059;-60
2022/11/02 09:05:49;;;;;;;20.42;4.68;;;;;;;12.85;100.00;163925.72;5093121;28;20024;-60
2022/11/02 09:08:19;;;;;;;11.35;3.42;;;;;;;13.12;100.00;163994.66;5091111;28;20387;-60
2022/11/02 09:10:48;;;;;;;14.07;4.20;;;;;;;13.23;100.00;164024.38;5092787;28;20024;-60
2022/11/02 09:13:16;;;;;;;14.25;3.50;;;;;;;13.38;100.00;164062.25;5090579;28;20036;-61
2022/11/02 09:15:41;;;;;;;9.05;4.10;;;;;;;13.28;100.00;164036.56;5091613;28;20511;-60
2022/11/02 09:18:07;;;;;;;13.75;4.22;;;;;;;13.02;100.00;163969.00;5090768;28;20036;-60
2022/11/02 09:20:33;;;;;;;14.52;4.70;;;;;;;12.98;100.00;163959.53;5092547;28;20028;-60
2022/11/02 09:22:59;;;;;;;9.00;2.47;;;;;;;13.40;100.00;164067.72;5091023;28;20047;-60
2022/11/02 09:25:24;;;;;;;21.30;3.00;;;;;;;13.66;100.00;164135.34;5091765;28;20083;-60
2022/11/02 09:27:54;;;;;;;9.52;3.28;;;;;;;13.98;100.00;164220.56;5091034;28;20044;-60
2022/11/02 09:30:20;;;;;;;14.40;3.60;;;;;;;14.45;100.00;164343.66;5092282;28;20472;-60
2022/11/02 09:32:59;;;;;;;14.38;4.35;;;;;;;15.07;100.00;164506.09;5085813;28;20550;-60
2022/11/02 09:35:29;;;;;;;9.50;3.05;;;;;;;15.60;100.00;164644.16;5085729;28;20043;-60
2022/11/02 09:37:55;;;;;;;10.75;3.03;;;;;;;15.64;100.00;164654.97;5090840;28;20529;-61
2022/11/02 09:40:22;;;;;;;15.45;4.43;;;;;;;14.94;100.00;164472.25;5091833;28;20024;-61
2022/11/02 09:43:13;;;;;;;20.65;6.38;;;;;;;15.28;100.00;164560.22;5090424;28;20032;-60
2022/11/02 09:46:05;;;;;;;11.90;3.45;;;;;;;15.28;100.00;164560.22;5092393;28;20028;-60
2022/11/02 09:48:44;;;;;;;11.23;3.53;;;;;;;15.35;100.00;164579.16;5090668;28;20527;-61
2022/11/02 09:51:15;;;;;;;15.80;4.72;;;;;;;15.25;100.00;164553.47;5070072;28;20473;-59
2022/11/02 09:54:12;;;;;;;7.25;2.08;;;;;;;15.64;100.00;164656.31;5071394;28;20027;-61
2022/11/02 09:56:40;;;;;;;15.37;3.73;;;;;;;15.53;100.00;164626.56;5070289;28;20044;-60
2022/11/02 09:59:14;;;;;;;7.50;2.80;;;;;;;15.43;100.00;164599.47;5071357;28;20464;-61
2022/11/02 10:01:45;;;;;;;8.95;2.58;;;;;;;15.23;100.00;164549.38;5070062;28;20090;-60
2022/11/02 10:04:43;;;;;;;10.88;2.70;;;;;;;15.19;100.00;164538.56;5071440;28;20389;-61
2022/11/02 10:07:28;;;;;;;14.40;4.30;;;;;;;14.70;100.00;164408.66;5069972;28;20119;-61
2022/11/02 10:09:58;;;;;;;10.60;5.18;;;;;;;14.71;100.00;164412.69;5071219;28;20031;-61
2022/11/02 10:13:05;;;;;;;10.18;3.13;;;;;;;14.70;100.00;164408.66;5069726;28;20117;-60
2022/11/02 10:15:51;;;;;;;8.98;3.35;;;;;;;14.34;100.00;164313.84;5071419;28;20047;-61
2022/11/02 10:18:23;;;;;;;12.73;2.83;;;;;;;14.24;100.00;164289.53;5069495;28;20112;-60
2022/11/02 10:20:51;;;;;;;13.63;4.22;;;;;;;14.30;100.00;164303.06;5071359;28;20036;-60
2022/11/02 10:23:33;;;;;;;29.30;4.35;;;;;;;14.12;100.00;164258.41;5069120;28;20120;-60
2022/11/02 10:26:00;;;;;;;12.57;3.22;;;;;;;13.94;100.00;164211.09;5071198;28;20054;-61
2022/11/02 10:28:30;;;;;;;9.13;3.60;;;;;;;14.06;100.00;164240.81;5069591;28;20052;-60
2022/11/02 10:30:56;;;;;;;7.78;2.53;;;;;;;13.93;100.00;164208.38;5070669;28;20025;-60
2022/11/02 10:33:26;;;;;;;12.25;2.75;;;;;;;13.94;100.00;164211.09;5069155;28;20048;-60
2022/11/02 10:36:20;;;;;;;16.02;4.22;;;;;;;14.13;100.00;164259.75;5071353;28;20078;-60
2022/11/02 10:39:10;;;;;;;23.45;4.70;;;;;;;13.89;100.00;164197.53;5069388;28;20056;-60
2022/11/02 10:41:55;;;;;;;9.82;3.55;;;;;;;14.18;100.00;164271.94;5069518;28;20442;-60
2022/11/02 10:44:29;;;;;;;11.27;3.13;;;;;;;13.93;100.00;164208.38;5070726;28;20530;-60
2022/11/02 10:47:11;;;;;;;13.90;2.85;;;;;;;14.38;100.00;164324.72;5069192;28;20056;-60
2022/11/02 10:50:17;;;;;;;14.13;4.72;;;;;;;14.48;100.00;164350.41;5070960;28;20036;-60
2022/11/02 10:52:44;;;;;;;11.75;2.45;;;;;;;14.45;100.00;164343.66;5068895;28;20129;-60
2022/11/02 10:55:23;;;;;;;16.67;3.47;;;;;;;14.01;100.00;164227.31;5070795;28;20111;-60
2022/11/02 10:57:51;;;;;;;12.07;3.47;;;;;;;13.82;100.00;164178.59;5069571;28;20070;-61
2022/11/02 11:00:26;;;;;;;11.40;4.03;;;;;;;13.89;100.00;164197.53;5070305;28;20040;-60
2022/11/02 11:03:11;;;;;;;8.27;3.70;;;;;;;14.07;100.00;164244.84;5069099;28;20045;-61
2022/11/02 11:05:50;;;;;;;4.82;2.05;;;;;;;13.94;100.00;164211.09;5070715;28;20382;-63
2022/11/02 11:08:40;;;;;;;23.27;6.13;;;;;;;14.12;100.00;164258.41;5068637;28;20037;-63
2022/11/02 11:11:12;;;;;;;9.80;3.58;;;;;;;14.08;100.00;164247.56;5070669;28;20028;-66
2022/11/02 11:13:40;;;;;;;10.32;2.75;;;;;;;14.07;100.00;164243.53;5069321;28;20090;-65
2022/11/02 11:16:06;;;;;;;8.65;3.53;;;;;;;13.93;100.00;164208.38;5070253;28;20049;-62
2022/11/02 11:18:31;;;;;;;9.50;3.45;;;;;;;14.19;100.00;164275.97;5069159;28;20488;-62
2022/11/02 11:20:58;;;;;;;8.02;2.75;;;;;;;14.27;100.00;164297.63;5071719;28;20062;-62
2022/11/02 11:23:25;;;;;;;12.25;2.72;;;;;;;14.57;100.00;164376.09;5070089;28;20095;-62
2022/11/02 11:25:56;;;;;;;11.77;3.38;;;;;;;14.50;100.00;164357.16;5087946;28;20028;-62
2022/11/02 11:28:29;;;;;;;12.65;3.75;;;;;;;14.65;100.00;164395.03;5082728;28;20043;-62
2022/11/02 11:31:15;;;;;;;8.15;2.97;;;;;;;14.71;100.00;164411.31;5080333;28;20116;-62
2022/11/02 11:33:52;;;;;;;9.32;2.13;;;;;;;14.19;100.00;164274.66;5070970;28;20045;-63
2022/11/02 11:36:30;;;;;;;13.93;3.75;;;;;;;14.57;100.00;164376.09;5086125;28;20048;-62
2022/11/02 11:39:02;;;;;;;9.85;2.40;;;;;;;14.73;100.00;164416.75;5091574;28;20097;-62